LICC/CTA METAR and TAF weather

Enter ICAO airport designator
Station Type Date Time Source
LICC METAR 2019/06/18 15:20 UTC NOAA

LICC 181520Z 06014KT CAVOK 26/21 Q1013


Station Type Date Time Source
LICC Decoded METAR 2019/06/18 15:20 UTC NOAA

Catania / Fontanarossa, Italy (LICC) 37-28N 015-03E 17M
Jun 18, 2019 - 11:20 AM EDT / 2019.06.18 1520 UTC
Wind: from the ENE (060 degrees) at 16 MPH (14 KT):0
Visibility: greater than 7 mile(s):0
Temperature: 78 F (26 C)
Dew Point: 69 F (21 C)
Relative Humidity: 73%
Pressure (altimeter): 29.91 in. Hg (1013 hPa)
ob: LICC 181520Z 06014KT CAVOK 26/21 Q1013
cycle: 15

Station Type Date Time Source
LICC TAF 2019/06/18 12:21 UTC NOAA

TAF LICC 181100Z 1812/1912 08012KT CAVOK
BECMG 1818/1820 VRB05KT
TEMPO 1900/1906 3000 BR BKN010
BECMG 1908/1910 08012KT

Example: see airport list